Detall de PIREP

Printer-friendly versionPDF version

[2009/05/13 17:28:00]
Flight IATA:CT0001
Pilot Number:011
Company ICAO:CAT
Aircraft Type:F28/A
PAX:85
Departing Airport: LEBL
Destination Airport: LEVC
Alternate Airport:LEPA
Online: VATSIM
Route:LOTOS UM985 SOPET
Flight Level:FL240
No Slew and time accel
No pause
Crash detect
Detect pilot in Cockpit between each 30 and 45 minutes
17:28 Zero fuel Weight: 59786 Lbs, Fuel Weight: 7998 Lbs
17:28 VATSIM:LEBL 130330Z 02010KT 8000 SCT015 17/15 Q1012 NOSIG
17:28 VATSIM:LEVC 130330Z 07004KT 040V100 7000 SCT022 17/14 Q1013 NOSIG
17:32 Parking Brakes off
17:49 Take-off
17:49 Take off Weight: 67049 Lbs
17:49 Wind: 025 @ 009 Knots Heading: 064
17:49 POS N41 17 14 E002 05 20
17:49 Flaps:2 at 154 Knots
17:49 Gear Up: 154 Knots
17:50 Flaps:1 at 185 Knots
17:50 Flaps:0 at 205 Knots
18:00 TOC
18:00 Fuel Weight: 5642 Lb
18:04 Wind:043@018 Knots Heading: 267 Ground S
peed: 429 Knots Altitude 23959 ft
18:12 TOD
18:12 Fuel Weight: 4775 Lb
18:19 Wind:066@010 Knots Heading: 226 Ground Speed: 300 Knots Altitude 11430 ft
18:28 Flaps:1 at 227 Knots
18:29 Flaps:2 at 212 Knots
18:29 Flaps:3 at 190 Knots
18:30 Flaps:4 at 162 Knots
18:30 Gear Down: 161 Knots
18:30 Flaps:5 at 148 Knots
18:34 Wind:054@004 Knots Heading: 112 Ground Speed: 131 Knots Altitude 472 ft
18:34 TouchDown:Rate -45 ft/min Speed: 111 Knots
18:34 VATSIM:LEVC 130330Z 07004KT 040V100 7000 SCT022 17/14 Q1013 NOSIG
18:34 Land
18:34 Wind:068@004 Knots
18:34 Heading: 113
18:34 Flight Duration: 00:45
18:34 Landing Weight: 63658 Lbs
18:34 POS N39 29 15 W000 28 36
18:38 Parking brakes on
18:38 Block to Block Duration: 01:06
18:38 Final Fuel: 3699 Lbls
18:38 Spent Fuel: 4298 Lbls
18:38 Flight Length: 63 NM
18:38 TOD Land Length: 19 NM

Exportar CSV

Powered by Drupal - Modified by Danger4k